Aviation Digital Data Service (ADDS)

Output produced by METARs form (1101 UTC 30 April 2017)
found at http://www.aviationweather.gov/adds/metars/
 
LBBG 301030Z 13009KT 9999 FEW023 17/12 Q1014 NOSIG
TAF LBBG 300500Z 3006/0106 VRB04KT 3000 BR BKN005 
     TEMPO 3006/3008 0800 BCFG OVC002 
     BECMG 3008/3009 03006KT 6000 SCT020 
     BECMG 3012/3014 13012KT SCT020 BKN040
       
LBGO 301030Z AUTO 29005KT 240V330 9999 FEW027/// 17/11 Q1016 NOSIG
TAF LBGO 300500Z 3006/0106 30010KT 9999 SCT010 BKN035 
     BECMG 3009/3011 04010KT SCT030 BKN050 
     TEMPO 3011/3016 4000 SHRA SCT030CB 
     BECMG 3018/3020 VRB04KT 
     TEMPO 0101/0105 3000 BR SCT020
       
LBPD 301030Z AUTO 04003KT 320V110 9999 FEW031/// BKN100/// 20/14 Q1013 NOSIG
TAF LBPD 300500Z 3006/0106 VRB04KT 9999 SCT070 
     BECMG 3008/3010 08010KT SCT040 BKN060 
     TEMPO 3010/3024 5000 SHRA SCT030CB BKN040 
     PROB40 3012/3015 VRB14G24KT 3000 TSRA FEW015 SCT025CB
       
LBSF 301030Z VRB02KT 9999 FEW015 BKN018 OVC022 13/10 Q1016 NOSIG
TAF LBSF 300500Z 3006/0106 28008KT 8000 SCT015 BKN020 
     BECMG 3007/3009 04010KT 9999 SCT020 BKN040 
     TEMPO 3009/0103 5000 RA BKN015 OVC030 
     PROB40 3011/3016 3000 SHRA SCT025CB
       
LBWN 301030Z 03008KT 350V070 9999 BKN034 22/13 Q1014 BECMG 03010KT
TAF LBWN 300500Z 3006/0106 VRB04KT 5000 BR SCT015 
     TEMPO 3006/3008 3000 BR BKN005 
     BECMG 3010/3012 04012KT 9999 SCT020
       
LBBG 301030Z 13009KT 9999 FEW023 17/12 Q1014 NOSIG
TAF LBBG 300500Z 3006/0106 VRB04KT 3000 BR BKN005 
     TEMPO 3006/3008 0800 BCFG OVC002 
     BECMG 3008/3009 03006KT 6000 SCT020 
     BECMG 3012/3014 13012KT SCT020 BKN040
       
LBGO 301030Z AUTO 29005KT 240V330 9999 FEW027/// 17/11 Q1016 NOSIG
TAF LBGO 300500Z 3006/0106 30010KT 9999 SCT010 BKN035 
     BECMG 3009/3011 04010KT SCT030 BKN050 
     TEMPO 3011/3016 4000 SHRA SCT030CB 
     BECMG 3018/3020 VRB04KT 
     TEMPO 0101/0105 3000 BR SCT020
       
LBPD 301030Z AUTO 04003KT 320V110 9999 FEW031/// BKN100/// 20/14 Q1013 NOSIG
TAF LBPD 300500Z 3006/0106 VRB04KT 9999 SCT070 
     BECMG 3008/3010 08010KT SCT040 BKN060 
     TEMPO 3010/3024 5000 SHRA SCT030CB BKN040 
     PROB40 3012/3015 VRB14G24KT 3000 TSRA FEW015 SCT025CB
       
LBSF 301030Z VRB02KT 9999 FEW015 BKN018 OVC022 13/10 Q1016 NOSIG
TAF LBSF 300500Z 3006/0106 28008KT 8000 SCT015 BKN020 
     BECMG 3007/3009 04010KT 9999 SCT020 BKN040 
     TEMPO 3009/0103 5000 RA BKN015 OVC030 
     PROB40 3011/3016 3000 SHRA SCT025CB
       
LBWN 301030Z 03008KT 350V070 9999 BKN034 22/13 Q1014 BECMG 03010KT
TAF LBWN 300500Z 3006/0106 VRB04KT 5000 BR SCT015 
     TEMPO 3006/3008 3000 BR BKN005 
     BECMG 3010/3012 04012KT 9999 SCT020